Time;durP1;ratioP1;P1;durP2;ratioP2;P2;SDS_P1;SDS_P2;PMS_P1;PMS_P2;Temp;Humidity;BMP_temperature;BMP_pressure;BME280_temperature;BME280_humidity;BME280_pressure;Samples;Min_cycle;Max_cycle;Signal;HPM_P1;HPM_P2
2022/02/12 00:02:04;;;;;;;2.70;0.70;;;18.10;56.90;;;;;;4965315;28;20219;-82
2022/02/12 00:04:30;;;;;;;1.13;0.52;;;18.10;57.10;;;;;;4982003;28;20186;-82
2022/02/12 00:06:55;;;;;;;2.75;0.70;;;18.00;57.20;;;;;;5016071;28;20170;-82
2022/02/12 00:09:21;;;;;;;1.52;0.60;;;18.00;57.10;;;;;;4981878;28;20160;-82
2022/02/12 00:11:47;;;;;;;1.30;1.05;;;18.00;57.20;;;;;;4998237;28;20202;-82
2022/02/12 00:14:12;;;;;;;2.15;0.82;;;18.00;57.10;;;;;;4997875;28;20254;-82
2022/02/12 00:16:38;;;;;;;2.25;0.95;;;18.00;57.10;;;;;;4998195;28;20177;-83
2022/02/12 00:19:04;;;;;;;1.10;0.60;;;18.00;57.00;;;;;;4998246;28;20206;-82
2022/02/12 00:21:29;;;;;;;1.30;0.70;;;18.00;57.00;;;;;;5015674;28;20183;-83
2022/02/12 00:23:57;;;;;;;3.30;0.80;;;18.10;56.60;;;;;;4981661;28;20549;-81
2022/02/12 00:26:22;;;;;;;0.50;0.40;;;18.10;57.10;;;;;;4964476;28;20293;-82
2022/02/12 00:28:49;;;;;;;0.93;0.52;;;18.00;56.70;;;;;;4998537;28;20708;-82
2022/02/12 00:31:16;;;;;;;1.52;0.65;;;18.00;57.20;;;;;;4981216;28;20215;-82
2022/02/12 00:33:43;;;;;;;1.65;0.47;;;18.00;57.10;;;;;;4964770;28;20179;-83
2022/02/12 00:36:10;;;;;;;1.30;0.50;;;18.00;56.90;;;;;;4948833;28;20263;-82
2022/02/12 00:38:37;;;;;;;0.75;0.50;;;18.10;57.20;;;;;;4997097;28;20542;-82
2022/02/12 00:41:02;;;;;;;0.95;0.50;;;18.00;57.30;;;;;;4996968;28;20195;-83
2022/02/12 00:43:29;;;;;;;2.38;0.70;;;18.00;57.10;;;;;;5015251;28;20615;-83
2022/02/12 00:45:57;;;;;;;1.80;0.60;;;18.00;57.10;;;;;;4948409;28;20191;-82
2022/02/12 00:48:23;;;;;;;2.53;0.60;;;18.00;56.80;;;;;;4996771;28;20521;-83
2022/02/12 00:50:48;;;;;;;1.60;0.80;;;17.90;57.20;;;;;;5014884;28;20245;-83
2022/02/12 00:53:14;;;;;;;1.33;0.60;;;17.90;57.40;;;;;;4997611;28;20206;-82
2022/02/12 00:55:40;;;;;;;4.38;0.75;;;17.90;57.40;;;;;;4997385;28;20156;-83
2022/02/12 00:58:05;;;;;;;1.25;0.63;;;17.90;57.30;;;;;;4997393;28;20196;-81
2022/02/12 01:00:33;;;;;;;1.98;0.85;;;17.90;57.10;;;;;;4997278;28;20166;-83
2022/02/12 01:03:02;;;;;;;2.72;1.00;;;18.00;57.20;;;;;;4981675;28;20249;-82
2022/02/12 01:05:29;;;;;;;2.90;0.50;;;17.90;57.30;;;;;;4996760;28;20194;-82
2022/02/12 01:07:57;;;;;;;1.40;0.60;;;17.90;57.00;;;;;;4979934;28;20191;-83
2022/02/12 01:10:24;;;;;;;2.28;0.70;;;18.00;57.40;;;;;;4996299;28;20301;-82
2022/02/12 01:12:51;;;;;;;2.22;0.80;;;17.90;57.20;;;;;;4996466;28;20203;-82
2022/02/12 01:15:16;;;;;;;2.03;0.68;;;17.90;57.00;;;;;;5014440;28;20163;-82
2022/02/12 01:17:42;;;;;;;1.30;0.50;;;17.90;57.30;;;;;;4997162;28;20490;-82
2022/02/12 01:20:08;;;;;;;1.23;0.65;;;17.90;56.90;;;;;;4996816;28;20186;-82
2022/02/12 01:22:34;;;;;;;1.67;0.65;;;17.90;57.40;;;;;;4997024;28;20155;-82
2022/02/12 01:24:59;;;;;;;1.48;0.70;;;17.80;57.30;;;;;;5014535;28;20263;-82
2022/02/12 01:27:26;;;;;;;1.20;0.80;;;17.90;57.40;;;;;;4996639;28;20223;-82
2022/02/12 01:29:52;;;;;;;0.80;0.60;;;17.80;57.10;;;;;;4964145;28;20194;-83
2022/02/12 01:32:19;;;;;;;1.80;0.70;;;17.80;57.10;;;;;;4996840;28;20171;-83
2022/02/12 01:34:44;;;;;;;1.95;0.70;;;17.80;57.10;;;;;;4979784;28;20191;-81
2022/02/12 01:37:10;;;;;;;1.40;0.60;;;17.90;57.10;;;;;;4980418;28;20221;-82
2022/02/12 01:39:36;;;;;;;0.63;0.40;;;17.80;57.20;;;;;;4996624;28;20167;-82
2022/02/12 01:42:02;;;;;;;3.05;0.50;;;17.70;57.50;;;;;;4996513;28;20170;-82
2022/02/12 01:44:33;;;;;;;0.95;0.50;;;17.80;57.00;;;;;;4980602;28;20172;-82
2022/02/12 01:46:58;;;;;;;1.42;0.70;;;17.80;57.50;;;;;;4988865;28;20510;-82
2022/02/12 01:49:24;;;;;;;1.95;0.52;;;17.80;57.30;;;;;;4980162;28;20164;-82
2022/02/12 01:51:50;;;;;;;1.55;0.60;;;17.80;57.10;;;;;;4996420;28;20229;-82
2022/02/12 01:54:15;;;;;;;0.60;0.60;;;17.80;57.50;;;;;;5013879;28;20171;-82
2022/02/12 01:56:42;;;;;;;2.58;0.60;;;17.80;57.10;;;;;;5013982;28;20166;-82
2022/02/12 01:59:07;;;;;;;1.35;0.50;;;17.80;57.70;;;;;;4996192;28;20195;-82
2022/02/12 02:01:33;;;;;;;1.02;0.50;;;17.80;57.30;;;;;;5013919;28;20170;-82
2022/02/12 02:04:00;;;;;;;2.78;0.80;;;17.80;57.20;;;;;;4980592;28;20167;-82
2022/02/12 02:06:27;;;;;;;0.77;0.70;;;17.80;57.50;;;;;;4979216;28;20262;-82
2022/02/12 02:08:53;;;;;;;2.20;0.65;;;17.80;57.20;;;;;;4946943;28;20183;-82
2022/02/12 02:11:21;;;;;;;1.15;0.50;;;17.80;57.30;;;;;;4979171;28;20222;-82
2022/02/12 02:13:47;;;;;;;2.33;0.70;;;17.70;57.60;;;;;;4963343;28;20194;-82
2022/02/12 02:16:14;;;;;;;2.65;0.60;;;17.70;57.30;;;;;;4963256;28;20179;-83
2022/02/12 02:18:40;;;;;;;1.50;0.60;;;17.70;57.10;;;;;;4996047;28;20154;-82
2022/02/12 02:21:06;;;;;;;0.73;0.50;;;17.70;57.30;;;;;;4995357;28;20246;-82
2022/02/12 02:23:34;;;;;;;1.83;0.70;;;17.70;57.20;;;;;;4980012;28;20257;-83
2022/02/12 02:26:01;;;;;;;0.90;0.50;;;17.80;57.30;;;;;;4976474;28;20556;-81
2022/02/12 02:28:26;;;;;;;2.58;0.57;;;17.70;56.90;;;;;;4992852;28;20251;-82
2022/02/12 02:30:52;;;;;;;1.83;0.52;;;17.70;57.20;;;;;;4995490;28;20270;-82
2022/02/12 02:33:17;;;;;;;1.17;0.47;;;17.80;57.10;;;;;;4995791;28;20167;-83
2022/02/12 02:35:43;;;;;;;0.77;0.52;;;17.80;57.50;;;;;;4996615;28;20653;-82
2022/02/12 02:38:12;;;;;;;1.50;0.73;;;17.70;56.80;;;;;;5013287;28;20158;-82
2022/02/12 02:40:38;;;;;;;1.05;0.60;;;17.70;57.20;;;;;;4979781;28;20186;-82
2022/02/12 02:43:05;;;;;;;2.88;0.70;;;17.70;56.90;;;;;;4996053;28;20194;-82
2022/02/12 02:45:30;;;;;;;2.33;0.60;;;17.70;57.00;;;;;;4979648;28;20203;-83
2022/02/12 02:48:00;;;;;;;1.23;0.60;;;17.70;57.30;;;;;;4979511;28;20696;-82
2022/02/12 02:58:40;;;;;;;1.77;0.60;;;17.70;57.30;;;;;;4998037;28;20203;-82
2022/02/12 03:01:11;;;;;;;1.13;0.60;;;17.70;56.90;;;;;;4995773;28;20205;-83
2022/02/12 03:03:39;;;;;;;1.20;0.50;;;17.70;57.00;;;;;;4994879;28;20187;-82
2022/02/12 03:06:06;;;;;;;1.35;0.57;;;17.70;57.00;;;;;;4962462;28;20179;-82
2022/02/12 03:08:33;;;;;;;0.98;0.63;;;17.70;57.20;;;;;;4995120;28;20191;-82
2022/02/12 03:10:58;;;;;;;1.08;0.50;;;17.70;57.30;;;;;;4962330;28;20230;-83
2022/02/12 03:13:24;;;;;;;1.30;0.70;;;17.60;57.10;;;;;;4995645;28;20547;-82
2022/02/12 03:15:49;;;;;;;0.85;0.60;;;17.60;57.30;;;;;;4995658;28;20159;-82
2022/02/12 03:18:16;;;;;;;2.40;0.60;;;17.60;57.50;;;;;;4995530;28;20566;-82
2022/02/12 03:20:42;;;;;;;1.90;0.65;;;17.60;57.30;;;;;;4979040;28;20198;-82
2022/02/12 03:23:07;;;;;;;1.23;0.50;;;17.60;57.20;;;;;;4979625;28;20216;-82
2022/02/12 03:25:33;;;;;;;1.63;0.68;;;17.60;57.30;;;;;;4995156;28;20618;-82
2022/02/12 03:28:00;;;;;;;2.20;0.60;;;17.60;57.10;;;;;;4979313;28;20180;-82
2022/02/12 03:30:26;;;;;;;2.03;0.65;;;17.60;57.30;;;;;;4995267;28;20191;-82
2022/02/12 03:32:52;;;;;;;1.08;0.60;;;17.60;56.90;;;;;;4998751;28;20155;-81
2022/02/12 03:35:18;;;;;;;0.95;0.50;;;17.60;57.00;;;;;;4998924;28;20206;-82
2022/02/12 03:37:44;;;;;;;1.63;0.60;;;17.60;57.10;;;;;;4982979;28;20177;-82
2022/02/12 03:40:12;;;;;;;0.82;0.40;;;17.60;57.40;;;;;;4998915;28;20151;-82
2022/02/12 03:42:38;;;;;;;1.20;0.60;;;17.60;57.30;;;;;;4982406;28;20259;-82
2022/02/12 03:45:04;;;;;;;1.50;0.60;;;17.60;57.30;;;;;;4998885;28;20167;-82
2022/02/12 03:47:30;;;;;;;1.50;0.80;;;17.60;57.20;;;;;;4982803;28;20335;-82
2022/02/12 03:49:56;;;;;;;0.80;0.43;;;17.70;57.30;;;;;;4982256;28;20625;-82
2022/02/12 03:52:21;;;;;;;1.50;0.50;;;17.60;57.00;;;;;;4982411;28;20171;-82
2022/02/12 03:54:47;;;;;;;1.80;0.73;;;17.60;56.90;;;;;;4982673;28;20610;-83
2022/02/12 03:57:12;;;;;;;2.55;0.60;;;17.60;57.30;;;;;;4982332;28;20258;-82
2022/02/12 03:59:38;;;;;;;1.17;0.70;;;17.50;57.30;;;;;;5016040;28;20210;-82
2022/02/12 04:02:04;;;;;;;1.63;0.60;;;17.60;57.50;;;;;;4998336;28;20240;-82
2022/02/12 04:04:29;;;;;;;0.65;0.50;;;17.50;57.30;;;;;;4998342;28;20167;-82
2022/02/12 04:06:55;;;;;;;0.98;0.52;;;17.60;57.20;;;;;;5015887;28;20158;-82
2022/02/12 04:09:21;;;;;;;0.52;0.45;;;17.50;57.40;;;;;;4981892;28;20247;-82
2022/02/12 04:11:46;;;;;;;1.98;0.55;;;17.50;57.60;;;;;;4998223;28;20265;-82
2022/02/12 04:14:12;;;;;;;2.25;0.52;;;17.50;57.50;;;;;;5016003;28;20657;-82
2022/02/12 04:16:37;;;;;;;1.02;0.70;;;17.60;57.30;;;;;;4998378;28;20198;-82
2022/02/12 04:19:03;;;;;;;1.08;0.65;;;17.50;57.60;;;;;;5015638;28;20206;-82
2022/02/12 04:21:29;;;;;;;1.92;0.70;;;17.50;57.30;;;;;;4998239;28;20167;-82
2022/02/12 04:23:55;;;;;;;1.35;0.50;;;17.50;57.30;;;;;;4998039;28;20164;-81
2022/02/12 04:26:21;;;;;;;2.67;0.60;;;17.50;57.40;;;;;;4998114;28;20306;-82
2022/02/12 04:28:49;;;;;;;1.02;0.52;;;17.50;57.30;;;;;;5015287;28;20254;-83
2022/02/12 04:31:16;;;;;;;1.10;0.73;;;17.50;57.50;;;;;;4981248;28;20221;-82
2022/02/12 04:33:42;;;;;;;2.65;0.60;;;17.50;57.30;;;;;;4997030;28;20186;-82
2022/02/12 04:36:08;;;;;;;1.45;0.82;;;17.50;57.30;;;;;;4997711;28;20167;-82
2022/02/12 04:38:34;;;;;;;1.67;0.50;;;17.50;57.40;;;;;;4982014;28;20225;-81
2022/02/12 04:41:00;;;;;;;1.60;0.55;;;17.50;57.20;;;;;;4981335;28;20167;-82
2022/02/12 04:43:26;;;;;;;0.93;0.68;;;17.50;57.30;;;;;;4997378;28;20159;-83
2022/02/12 04:45:52;;;;;;;0.82;0.50;;;17.50;57.20;;;;;;4997521;28;20163;-82
2022/02/12 04:48:17;;;;;;;1.15;0.70;;;17.50;57.20;;;;;;4997379;28;20674;-82
2022/02/12 04:50:43;;;;;;;1.40;0.90;;;17.50;57.40;;;;;;5014952;28;20278;-83
2022/02/12 04:53:08;;;;;;;2.47;0.68;;;17.50;57.50;;;;;;4997464;28;20253;-82
2022/02/12 04:55:35;;;;;;;2.03;0.60;;;17.50;58.10;;;;;;4997458;28;20202;-82
2022/02/12 04:58:02;;;;;;;2.55;0.65;;;17.50;58.00;;;;;;4997553;28;20158;-82
2022/02/12 05:00:28;;;;;;;2.15;0.60;;;17.50;57.30;;;;;;4980788;28;20170;-82
2022/02/12 05:02:54;;;;;;;1.35;0.60;;;17.50;57.40;;;;;;4997369;28;20661;-82
2022/02/12 05:05:20;;;;;;;1.45;0.93;;;17.50;57.60;;;;;;4996962;28;20156;-82
2022/02/12 05:07:45;;;;;;;1.25;0.40;;;17.50;57.40;;;;;;4981291;28;20623;-82
2022/02/12 05:10:12;;;;;;;1.10;0.60;;;17.50;57.60;;;;;;4997041;28;20158;-82
2022/02/12 05:12:37;;;;;;;0.82;0.60;;;17.40;57.00;;;;;;4980595;28;20175;-82
2022/02/12 05:15:04;;;;;;;0.90;0.63;;;17.50;57.30;;;;;;4980665;28;20170;-82
2022/02/12 05:17:30;;;;;;;1.60;0.50;;;17.50;57.40;;;;;;4980742;28;20186;-82
2022/02/12 05:19:55;;;;;;;2.80;0.80;;;17.50;57.40;;;;;;4996965;28;20678;-82
2022/02/12 05:22:21;;;;;;;1.58;0.50;;;17.50;57.40;;;;;;4996692;28;20159;-82
2022/02/12 05:24:46;;;;;;;1.58;0.60;;;17.40;57.00;;;;;;4996910;28;20167;-82
2022/02/12 05:27:12;;;;;;;0.60;0.50;;;17.40;57.20;;;;;;4996732;28;20258;-82
2022/02/12 05:29:38;;;;;;;1.58;0.60;;;17.50;57.40;;;;;;4981303;28;20172;-82
2022/02/12 05:32:03;;;;;;;1.15;0.60;;;17.50;57.30;;;;;;4996530;28;20206;-82
2022/02/12 05:34:29;;;;;;;0.88;0.50;;;17.50;57.30;;;;;;4996676;28;20164;-82
2022/02/12 05:36:55;;;;;;;1.00;0.60;;;17.50;57.10;;;;;;4996861;28;20167;-82
2022/02/12 05:39:21;;;;;;;2.00;0.90;;;17.50;58.00;;;;;;4980235;28;20176;-82
2022/02/12 05:41:46;;;;;;;1.55;0.60;;;17.50;57.20;;;;;;4980630;28;20171;-82
2022/02/12 05:44:12;;;;;;;0.70;0.47;;;17.50;57.50;;;;;;4980259;28;20170;-82
2022/02/12 05:46:38;;;;;;;0.88;0.60;;;17.50;57.20;;;;;;4996388;28;20159;-82
2022/02/12 05:49:04;;;;;;;0.50;0.50;;;17.50;57.30;;;;;;4980819;28;20321;-82
2022/02/12 05:51:32;;;;;;;0.93;0.52;;;17.50;57.30;;;;;;4980702;28;20199;-82
2022/02/12 05:54:00;;;;;;;1.67;0.50;;;17.40;57.30;;;;;;4978778;28;20557;-82
2022/02/12 05:56:26;;;;;;;2.28;0.60;;;17.40;57.50;;;;;;4979477;28;20175;-82
2022/02/12 05:58:52;;;;;;;0.88;0.50;;;17.40;57.50;;;;;;4996264;28;20707;-81
2022/02/12 06:01:17;;;;;;;1.25;0.65;;;17.40;57.30;;;;;;4978972;28;20258;-82
2022/02/12 06:03:43;;;;;;;1.02;0.50;;;17.40;57.40;;;;;;5012119;28;20538;-82
2022/02/12 06:06:09;;;;;;;1.90;0.60;;;17.50;57.40;;;;;;4978629;28;20205;-82
2022/02/12 06:08:35;;;;;;;0.90;0.40;;;17.40;57.20;;;;;;4995338;28;20258;-82
2022/02/12 06:11:03;;;;;;;1.23;0.50;;;17.40;57.40;;;;;;4995570;28;20270;-82
2022/02/12 06:13:29;;;;;;;1.17;0.60;;;17.40;57.20;;;;;;4979397;28;20259;-82
2022/02/12 06:15:55;;;;;;;0.77;0.50;;;17.40;57.40;;;;;;4995312;28;20607;-82
2022/02/12 06:18:20;;;;;;;0.90;0.50;;;17.50;57.20;;;;;;5013262;28;20152;-82
2022/02/12 06:20:46;;;;;;;2.28;0.75;;;17.50;57.30;;;;;;4996539;28;20660;-82
2022/02/12 06:23:12;;;;;;;1.10;0.52;;;17.40;57.40;;;;;;4995696;28;20171;-82
2022/02/12 06:25:38;;;;;;;0.93;0.60;;;17.40;57.20;;;;;;4995853;28;20226;-82
2022/02/12 06:28:04;;;;;;;1.67;0.70;;;17.40;57.40;;;;;;4996181;28;20159;-83
2022/02/12 06:30:31;;;;;;;2.15;0.75;;;17.40;57.50;;;;;;4995812;28;20187;-81
2022/02/12 06:32:59;;;;;;;1.02;0.60;;;17.40;57.10;;;;;;4979470;28;20171;-83
2022/02/12 06:35:27;;;;;;;1.85;0.55;;;17.40;57.30;;;;;;4979905;28;20179;-82
2022/02/12 06:37:53;;;;;;;2.15;0.70;;;17.40;57.40;;;;;;4946990;28;20183;-81
2022/02/12 06:40:38;;;;;;;1.17;0.77;;;17.50;57.40;;;;;;4997801;28;20158;-80
2022/02/12 06:43:04;;;;;;;1.55;0.57;;;17.40;57.40;;;;;;4979305;28;20290;-79
2022/02/12 06:45:39;;;;;;;1.02;0.60;;;17.40;57.30;;;;;;4979601;28;20560;-82
2022/02/12 06:48:05;;;;;;;1.48;0.65;;;17.50;57.10;;;;;;4979276;28;20281;-82
2022/02/12 06:50:31;;;;;;;1.27;0.60;;;17.40;57.20;;;;;;4996015;28;20281;-82
2022/02/12 06:52:57;;;;;;;1.10;0.52;;;17.40;56.70;;;;;;4979325;28;20183;-82
2022/02/12 06:55:26;;;;;;;1.10;0.50;;;17.50;57.00;;;;;;4977359;28;20626;-82
2022/02/12 06:57:55;;;;;;;0.95;0.50;;;17.50;57.30;;;;;;4976233;28;20241;-82
2022/02/12 07:00:24;;;;;;;1.00;0.55;;;17.50;57.20;;;;;;4977483;28;20180;-82
2022/02/12 07:02:52;;;;;;;1.45;0.90;;;17.40;57.20;;;;;;4962762;28;20187;-82
2022/02/12 07:05:22;;;;;;;1.65;0.60;;;17.50;56.90;;;;;;4946219;28;20179;-82
2022/02/12 07:07:51;;;;;;;0.95;0.63;;;17.50;57.30;;;;;;4966925;28;20227;-82
2022/02/12 07:10:21;;;;;;;0.68;0.40;;;17.50;57.00;;;;;;4983182;28;20187;-82
2022/02/12 07:12:49;;;;;;;0.88;0.77;;;17.50;57.20;;;;;;4968246;28;20195;-82
2022/02/12 07:15:17;;;;;;;0.75;0.60;;;17.40;56.90;;;;;;4967283;28;20227;-82
2022/02/12 07:17:44;;;;;;;1.42;0.60;;;17.40;57.20;;;;;;4951430;28;20179;-82
2022/02/12 07:20:13;;;;;;;0.80;0.60;;;17.50;57.20;;;;;;4967422;28;20222;-82
2022/02/12 07:22:40;;;;;;;1.98;0.68;;;17.40;57.20;;;;;;4967156;28;20183;-83
2022/02/12 07:25:08;;;;;;;1.85;0.60;;;17.40;57.30;;;;;;4983554;28;20171;-82
2022/02/12 07:27:38;;;;;;;1.08;0.60;;;17.40;57.10;;;;;;4966429;28;20289;-82
2022/02/12 07:30:06;;;;;;;3.00;0.75;;;17.40;56.90;;;;;;4951366;28;20191;-82
2022/02/12 07:32:36;;;;;;;1.95;0.73;;;17.50;56.80;;;;;;4950301;28;20286;-82
2022/02/12 07:35:02;;;;;;;3.55;0.68;;;17.50;56.70;;;;;;4950379;28;20278;-82
2022/02/12 07:37:28;;;;;;;2.38;0.60;;;17.50;56.80;;;;;;4983606;28;20159;-82
2022/02/12 07:39:54;;;;;;;1.02;0.68;;;17.50;56.60;;;;;;4983250;28;20661;-83
2022/02/12 07:42:22;;;;;;;1.40;0.52;;;17.50;57.00;;;;;;4999690;28;20216;-82
2022/02/12 07:44:48;;;;;;;0.90;0.60;;;17.50;56.80;;;;;;4966293;28;20233;-83
2022/02/12 07:47:16;;;;;;;1.70;0.55;;;17.50;56.80;;;;;;5016500;28;20238;-83
2022/02/12 07:49:44;;;;;;;3.35;0.90;;;17.50;56.80;;;;;;4966067;28;20642;-83
2022/02/12 07:52:12;;;;;;;1.95;0.82;;;17.60;56.60;;;;;;4981993;28;20230;-83
2022/02/12 07:54:41;;;;;;;1.30;0.50;;;17.70;56.40;;;;;;4965145;28;20205;-83
2022/02/12 07:57:09;;;;;;;2.28;0.52;;;17.70;55.90;;;;;;4965362;28;20513;-85
2022/02/12 07:59:35;;;;;;;3.55;0.63;;;17.80;55.70;;;;;;4982212;28;20191;-84
2022/02/12 08:02:00;;;;;;;1.20;0.60;;;17.90;55.10;;;;;;4999787;28;20227;-83
2022/02/12 08:04:27;;;;;;;3.72;0.70;;;17.90;55.70;;;;;;4981183;28;20654;-83
2022/02/12 08:09:35;;;;;;;3.22;0.63;;;18.00;55.60;;;;;;4998093;28;20164;-82
2022/02/12 08:12:13;;;;;;;2.08;0.80;;;18.00;55.00;;;;;;4964913;28;20192;-82
2022/02/12 08:14:42;;;;;;;2.38;0.68;;;18.10;55.30;;;;;;4969083;28;20187;-83
2022/02/12 08:17:19;;;;;;;4.68;0.80;;;18.20;55.30;;;;;;4964667;28;20230;-83
2022/02/12 08:19:58;;;;;;;2.28;0.77;;;18.00;55.30;;;;;;4981393;28;20226;-84
2022/02/12 08:22:31;;;;;;;2.85;0.68;;;18.20;55.70;;;;;;4970229;28;20830;-84
2022/02/12 08:25:05;;;;;;;4.03;0.63;;;18.20;55.30;;;;;;4984297;28;20198;-83
2022/02/12 08:27:38;;;;;;;3.15;0.70;;;18.20;55.00;;;;;;4952466;28;20227;-82
2022/02/12 08:30:11;;;;;;;3.10;0.70;;;18.20;54.70;;;;;;4983741;28;20187;-84
2022/02/12 08:32:43;;;;;;;1.33;0.50;;;18.30;54.50;;;;;;4967999;28;20200;-83
2022/02/12 08:35:15;;;;;;;2.35;0.65;;;18.40;54.30;;;;;;4967148;28;20218;-83
2022/02/12 08:37:47;;;;;;;3.33;0.70;;;18.40;54.60;;;;;;4984428;28;20250;-83
2022/02/12 08:40:20;;;;;;;0.93;0.50;;;18.40;54.40;;;;;;5000744;28;20247;-84
2022/02/12 08:42:53;;;;;;;1.13;0.50;;;18.40;54.10;;;;;;4969217;28;20194;-83
2022/02/12 08:45:24;;;;;;;5.70;0.82;;;18.40;54.20;;;;;;4969089;28;20179;-84
2022/02/12 08:47:54;;;;;;;2.17;0.93;;;18.50;55.00;;;;;;4953272;28;20190;-84
2022/02/12 08:50:24;;;;;;;3.30;0.80;;;18.30;54.20;;;;;;4966715;28;20259;-86
2022/02/12 08:52:53;;;;;;;2.15;0.73;;;18.40;54.50;;;;;;4964647;28;20198;-84
2022/02/12 08:55:26;;;;;;;1.55;0.70;;;18.40;54.90;;;;;;4980331;28;20340;-83
2022/02/12 08:57:55;;;;;;;2.65;0.90;;;18.50;54.50;;;;;;4948867;28;20183;-83
2022/02/12 09:00:24;;;;;;;2.38;0.77;;;18.50;54.70;;;;;;4984062;28;20186;-83
2022/02/12 09:02:53;;;;;;;4.97;0.70;;;18.50;54.70;;;;;;4949779;28;20190;-86
2022/02/12 09:05:22;;;;;;;4.82;0.85;;;18.60;54.50;;;;;;4982191;28;20210;-83
2022/02/12 09:07:50;;;;;;;4.20;0.95;;;18.60;54.60;;;;;;4980707;28;20179;-83
2022/02/12 09:10:19;;;;;;;5.70;0.98;;;18.60;54.00;;;;;;4980244;28;20179;-83
2022/02/12 09:12:48;;;;;;;4.45;0.90;;;18.70;54.20;;;;;;4996382;28;20188;-81
2022/02/12 09:15:16;;;;;;;3.25;1.00;;;18.80;54.00;;;;;;4964725;28;20183;-82
2022/02/12 09:17:44;;;;;;;3.97;0.98;;;18.80;53.70;;;;;;4966716;28;20181;-82
2022/02/12 09:20:13;;;;;;;6.80;0.93;;;18.80;53.50;;;;;;4979966;28;20179;-83
2022/02/12 09:22:41;;;;;;;3.75;0.93;;;18.80;54.10;;;;;;4980337;28;20190;-83
2022/02/12 09:25:09;;;;;;;3.13;1.00;;;18.80;54.40;;;;;;4980631;28;20176;-82
2022/02/12 09:27:38;;;;;;;5.50;0.60;;;18.80;53.10;;;;;;4964949;28;20253;-82
2022/02/12 09:30:06;;;;;;;2.95;0.80;;;18.70;53.80;;;;;;4964403;28;20210;-81
2022/02/12 09:32:34;;;;;;;4.18;0.77;;;18.80;54.20;;;;;;4980267;28;20215;-81
2022/02/12 09:35:02;;;;;;;6.35;1.00;;;18.80;54.10;;;;;;4964777;28;20175;-83
2022/02/12 09:37:29;;;;;;;5.35;0.80;;;18.70;53.90;;;;;;4980579;28;20187;-83
2022/02/12 09:39:57;;;;;;;6.15;0.88;;;18.80;53.80;;;;;;4997287;28;20190;-82
2022/02/12 09:42:25;;;;;;;5.60;0.88;;;18.80;54.00;;;;;;4965152;28;20308;-82
2022/02/12 09:44:52;;;;;;;4.45;0.82;;;18.80;54.40;;;;;;4967832;28;20240;-82
2022/02/12 09:47:39;;;;;;;18.63;1.10;;;18.70;54.60;;;;;;4981507;28;20190;-82
2022/02/12 09:50:09;;;;;;;2.20;0.65;;;18.80;54.70;;;;;;4981079;28;20631;-82
2022/02/12 09:52:41;;;;;;;2.00;0.70;;;18.80;54.60;;;;;;4949193;28;20538;-82
2022/02/12 09:55:12;;;;;;;1.58;0.70;;;18.80;54.20;;;;;;4997979;28;20191;-82
2022/02/12 09:57:39;;;;;;;6.15;0.80;;;18.90;53.10;;;;;;4966158;28;20190;-82
2022/02/12 10:00:09;;;;;;;7.47;0.85;;;18.90;53.90;;;;;;4966634;28;20187;-81
2022/02/12 10:02:35;;;;;;;5.68;0.95;;;19.00;54.70;;;;;;4999083;28;20265;-82
2022/02/12 10:05:17;;;;;;;5.80;1.10;;;19.00;53.70;;;;;;5016483;28;20155;-82
2022/02/12 10:07:44;;;;;;;3.28;0.70;;;19.00;54.90;;;;;;5015212;28;20213;-83
2022/02/12 10:10:15;;;;;;;4.50;0.90;;;19.00;56.20;;;;;;5014545;28;20606;-83
2022/02/12 10:12:42;;;;;;;2.85;0.93;;;19.00;55.30;;;;;;4995697;28;20237;-83
2022/02/12 10:15:24;;;;;;;7.53;0.93;;;19.00;54.70;;;;;;4998126;28;20175;-83
2022/02/12 10:17:51;;;;;;;5.90;1.05;;;18.90;55.30;;;;;;4980803;28;20168;-82
2022/02/12 10:20:28;;;;;;;2.83;0.90;;;19.00;55.20;;;;;;4981558;28;20174;-82
2022/02/12 10:23:01;;;;;;;5.97;0.90;;;18.90;55.30;;;;;;5015123;28;20210;-82
2022/02/12 10:25:27;;;;;;;6.30;1.02;;;18.90;55.20;;;;;;4998251;28;20155;-84
2022/02/12 10:27:53;;;;;;;8.68;1.17;;;19.00;55.70;;;;;;4999603;28;20225;-82
2022/02/12 10:30:19;;;;;;;4.43;1.10;;;18.90;55.80;;;;;;4998189;28;20213;-82
2022/02/12 10:32:49;;;;;;;4.75;1.17;;;18.90;56.00;;;;;;4999584;28;20167;-82
2022/02/12 10:35:14;;;;;;;5.97;1.00;;;18.90;56.30;;;;;;4983569;28;20214;-82
2022/02/12 10:37:41;;;;;;;3.53;0.65;;;18.90;56.20;;;;;;4997601;28;20187;-82
2022/02/12 10:40:08;;;;;;;2.45;0.90;;;18.90;56.40;;;;;;5015402;28;20166;-81
2022/02/12 10:42:43;;;;;;;2.50;0.95;;;18.90;56.40;;;;;;4984512;28;20230;-81
2022/02/12 10:45:12;;;;;;;4.10;1.02;;;18.90;56.80;;;;;;5019009;28;20154;-81
2022/02/12 10:47:38;;;;;;;2.22;0.80;;;18.90;56.90;;;;;;4985168;28;20246;-81
2022/02/12 10:50:08;;;;;;;4.38;0.82;;;19.00;56.90;;;;;;5001352;28;20221;-82
2022/02/12 10:52:43;;;;;;;6.95;0.88;;;19.00;57.10;;;;;;4984106;28;20310;-81
2022/02/12 10:55:35;;;;;;;3.78;0.90;;;19.00;57.10;;;;;;4984684;28;20522;-81
2022/02/12 10:58:03;;;;;;;3.45;1.20;;;19.00;57.30;;;;;;5001275;28;20603;-82
2022/02/12 11:00:34;;;;;;;3.72;0.88;;;19.00;57.60;;;;;;4984632;28;20175;-81
2022/02/12 11:03:01;;;;;;;3.53;0.88;;;19.00;57.60;;;;;;4985573;28;20249;-82
2022/02/12 11:05:28;;;;;;;2.42;1.00;;;19.00;57.40;;;;;;4988058;28;20331;-82
2022/02/12 11:07:54;;;;;;;5.65;0.90;;;19.00;57.60;;;;;;4986944;28;20186;-82
2022/02/12 11:10:24;;;;;;;3.75;0.90;;;19.00;57.60;;;;;;5001203;28;20156;-81
2022/02/12 11:12:50;;;;;;;6.97;1.13;;;19.10;57.50;;;;;;5000001;28;20187;-81
2022/02/12 11:15:16;;;;;;;4.18;0.90;;;19.10;57.20;;;;;;4981091;28;20254;-80
2022/02/12 11:17:43;;;;;;;5.05;1.00;;;19.10;57.30;;;;;;4979533;28;20156;-80
2022/02/12 11:20:12;;;;;;;5.38;1.08;;;19.10;57.50;;;;;;4996879;28;20169;-80
2022/02/12 11:22:40;;;;;;;5.85;0.80;;;19.10;56.90;;;;;;4981195;28;20251;-81
2022/02/12 11:25:34;;;;;;;7.10;1.20;;;19.10;57.50;;;;;;4980078;28;20161;-81
2022/02/12 11:28:09;;;;;;;6.88;1.10;;;19.10;57.40;;;;;;4979893;28;20293;-82
2022/02/12 11:30:37;;;;;;;5.35;0.90;;;19.10;57.00;;;;;;4987502;28;20194;-80
2022/02/12 11:33:21;;;;;;;4.63;1.15;;;19.10;57.40;;;;;;4984176;28;20214;-80
2022/02/12 11:36:19;;;;;;;2.58;0.80;;;19.10;56.90;;;;;;4999328;28;20246;-79
2022/02/12 11:38:45;;;;;;;3.78;0.90;;;19.10;57.40;;;;;;4986657;28;20524;-80
2022/02/12 11:41:26;;;;;;;1.98;0.88;;;19.10;57.10;;;;;;4985107;28;20206;-82
2022/02/12 11:43:54;;;;;;;1.63;0.70;;;19.00;57.70;;;;;;5000719;28;20242;-82
2022/02/12 11:46:59;;;;;;;1.85;0.88;;;19.10;58.20;;;;;;4968948;28;20194;-82
2022/02/12 11:49:34;;;;;;;2.13;0.80;;;19.00;57.90;;;;;;5017822;28;20178;-83
2022/02/12 11:52:21;;;;;;;1.90;0.80;;;19.00;57.80;;;;;;5001555;28;20187;-83
2022/02/12 11:54:56;;;;;;;4.38;1.20;;;19.10;57.80;;;;;;4989957;28;20198;-81
2022/02/12 11:57:41;;;;;;;4.10;0.90;;;19.10;58.20;;;;;;4970585;28;20506;-80
2022/02/12 12:00:33;;;;;;;4.63;0.93;;;19.10;57.30;;;;;;4999939;28;20217;-79
2022/02/12 12:03:06;;;;;;;4.28;0.75;;;19.10;57.70;;;;;;4969738;28;20657;-80
2022/02/12 12:05:33;;;;;;;3.63;0.90;;;19.10;57.80;;;;;;5030868;28;20262;-81
2022/02/12 12:08:10;;;;;;;4.85;0.82;;;19.10;57.80;;;;;;5002320;28;20175;-79
2022/02/12 12:10:38;;;;;;;3.75;1.05;;;19.10;57.80;;;;;;5019628;28;20212;-81
2022/02/12 12:13:43;;;;;;;3.53;0.93;;;19.10;57.10;;;;;;5001665;28;20199;-82
2022/02/12 12:16:14;;;;;;;4.05;1.20;;;19.10;58.20;;;;;;4998487;28;20637;-80
2022/02/12 12:18:45;;;;;;;2.90;0.90;;;19.10;58.00;;;;;;5015767;28;20555;-80
2022/02/12 12:21:13;;;;;;;3.47;0.90;;;19.10;58.50;;;;;;4983183;28;20278;-84
2022/02/12 12:23:38;;;;;;;2.55;0.60;;;19.00;58.30;;;;;;4997763;28;20190;-82
2022/02/12 12:26:04;;;;;;;1.38;0.57;;;19.00;58.00;;;;;;4961994;28;20234;-82
2022/02/12 12:28:31;;;;;;;2.70;1.13;;;19.00;58.10;;;;;;4974696;28;20187;-81
2022/02/12 12:30:58;;;;;;;1.90;1.10;;;19.00;58.50;;;;;;4997400;28;20214;-83
2022/02/12 12:33:26;;;;;;;3.55;0.73;;;19.10;57.80;;;;;;4997195;28;20236;-82
2022/02/12 12:35:52;;;;;;;1.52;0.65;;;19.10;57.80;;;;;;4997881;28;20553;-82
2022/02/12 12:38:18;;;;;;;1.45;0.90;;;19.10;56.00;;;;;;4988543;28;20596;-81
2022/02/12 12:40:43;;;;;;;2.55;1.00;;;19.10;56.40;;;;;;4971559;28;20180;-80
2022/02/12 12:43:09;;;;;;;3.60;1.20;;;19.10;57.50;;;;;;4987572;28;20224;-84
2022/02/12 12:45:42;;;;;;;3.00;0.77;;;19.10;57.70;;;;;;5014709;28;20638;-82
2022/02/12 12:48:08;;;;;;;3.30;1.30;;;19.10;57.20;;;;;;4981019;28;20167;-84
2022/02/12 12:50:35;;;;;;;3.47;0.90;;;19.00;57.60;;;;;;4977555;28;20184;-81
2022/02/12 12:53:02;;;;;;;2.45;1.00;;;19.10;57.30;;;;;;5000322;28;20225;-83
2022/02/12 12:55:27;;;;;;;3.38;1.00;;;19.00;57.60;;;;;;4993632;28;20242;-82
2022/02/12 12:57:53;;;;;;;4.85;1.02;;;19.10;58.00;;;;;;4998045;28;20551;-81
2022/02/12 13:00:21;;;;;;;4.82;0.98;;;19.10;57.60;;;;;;5015454;28;20195;-84
2022/02/12 13:02:50;;;;;;;2.33;0.90;;;19.10;57.20;;;;;;4981448;28;20223;-84
2022/02/12 13:05:31;;;;;;;3.55;1.15;;;19.10;57.60;;;;;;4997843;28;20159;-84